createdAt,value
2022-11-10T00:04:30.776Z,5.39
2022-11-10T00:08:51.635Z,5.36
2022-11-10T00:13:12.113Z,5.27
2022-11-10T00:17:36.325Z,5.25
2022-11-10T00:21:56.923Z,5.24
2022-11-10T00:26:19.899Z,5.31
2022-11-10T00:30:43.393Z,5.21
2022-11-10T00:35:07.777Z,5.17
2022-11-10T00:39:28.238Z,5.24
2022-11-10T00:43:49.349Z,5.23
2022-11-10T00:48:09.767Z,5.20
2022-11-10T00:52:30.067Z,5.31
2022-11-10T00:56:50.900Z,5.40
2022-11-10T01:01:12.043Z,5.36
2022-11-10T01:05:35.378Z,5.38
2022-11-10T01:09:55.593Z,5.49
2022-11-10T01:14:15.616Z,5.56
2022-11-10T01:18:36.541Z,5.52
2022-11-10T01:22:56.937Z,5.55
2022-11-10T01:27:17.461Z,5.58
2022-11-10T01:31:38.164Z,5.54
2022-11-10T01:35:59.009Z,5.62
2022-11-10T01:40:19.850Z,5.65
2022-11-10T01:44:42.017Z,5.68
2022-11-10T01:49:04.194Z,5.67
2022-11-10T01:53:27.833Z,5.64
2022-11-10T01:57:48.839Z,5.77
2022-11-10T02:02:20.633Z,5.80
2022-11-10T02:06:43.211Z,5.84
2022-11-10T02:11:04.619Z,5.87
2022-11-10T02:15:25.205Z,6.03
2022-11-10T02:19:45.636Z,6.04
2022-11-10T02:24:05.738Z,6.08
2022-11-10T02:28:27.228Z,6.18
2022-11-10T02:32:47.215Z,6.18
2022-11-10T02:37:07.906Z,6.21
2022-11-10T02:41:28.145Z,6.14
2022-11-10T02:45:48.884Z,6.22
2022-11-10T02:50:09.374Z,6.25
2022-11-10T02:54:29.617Z,6.20
2022-11-10T02:58:49.674Z,6.21
2022-11-10T03:03:10.315Z,6.28
2022-11-10T03:07:30.430Z,6.24
2022-11-10T03:11:51.261Z,6.29
2022-11-10T03:16:11.262Z,6.39
2022-11-10T03:20:31.867Z,6.39
2022-11-10T03:24:51.962Z,6.42
2022-11-10T03:29:12.559Z,6.40
2022-11-10T03:33:32.981Z,6.36
2022-11-10T03:37:53.379Z,6.40
2022-11-10T03:42:13.487Z,6.34
2022-11-10T03:46:33.957Z,6.34
2022-11-10T03:50:54.288Z,6.39
2022-11-10T03:55:17.347Z,6.46
2022-11-10T03:59:37.675Z,6.43
2022-11-10T04:03:58.308Z,6.55
2022-11-10T04:08:37.076Z,6.51
2022-11-10T04:13:16.367Z,6.56
2022-11-10T04:17:37.027Z,6.59
2022-11-10T04:21:58.096Z,6.51
2022-11-10T04:26:29.817Z,6.43
2022-11-10T04:30:50.294Z,6.33
2022-11-10T04:35:10.417Z,6.40
2022-11-10T04:39:30.682Z,6.43
2022-11-10T04:43:51.195Z,6.65
2022-11-10T04:48:11.733Z,6.72
2022-11-10T04:52:31.828Z,6.67
2022-11-10T04:56:52.602Z,6.70
2022-11-10T05:01:14.574Z,6.73
2022-11-10T05:05:35.532Z,6.84
2022-11-10T05:09:56.012Z,6.72
2022-11-10T05:14:16.518Z,6.81
2022-11-10T05:18:37.278Z,6.89
2022-11-10T05:23:16.343Z,6.90
2022-11-10T05:27:36.669Z,6.88
2022-11-10T05:31:57.107Z,6.82
2022-11-10T05:36:17.286Z,6.81
2022-11-10T05:40:37.922Z,6.78
2022-11-10T05:44:57.761Z,6.82
2022-11-10T05:49:18.437Z,6.91
2022-11-10T05:53:38.434Z,7.00
2022-11-10T05:57:58.952Z,7.07
2022-11-10T06:02:19.133Z,7.05
2022-11-10T06:06:39.763Z,7.08
2022-11-10T06:10:59.790Z,7.17
2022-11-10T06:15:20.902Z,7.22
2022-11-10T06:19:41.034Z,7.39
2022-11-10T06:24:01.541Z,7.34
2022-11-10T06:28:21.709Z,7.41
2022-11-10T06:32:44.187Z,7.46
2022-11-10T06:37:04.240Z,7.53
2022-11-10T06:41:25.537Z,7.55
2022-11-10T06:45:45.978Z,7.60
2022-11-10T06:50:07.069Z,7.70
2022-11-10T06:54:27.298Z,7.77
2022-11-10T06:58:47.977Z,7.80
2022-11-10T07:03:12.787Z,7.85
2022-11-10T07:07:33.158Z,7.90
2022-11-10T07:11:53.134Z,7.97
2022-11-10T07:16:13.943Z,7.99
2022-11-10T07:20:35.964Z,8.12
2022-11-10T07:24:56.933Z,8.21
2022-11-10T07:29:17.122Z,8.29
2022-11-10T07:33:37.654Z,8.36
2022-11-10T07:38:01.254Z,8.35
2022-11-10T07:42:21.353Z,8.43
2022-11-10T07:46:41.494Z,8.56
2022-11-10T07:51:01.973Z,8.59
2022-11-10T07:55:22.618Z,8.71
2022-11-10T07:59:43.299Z,8.69
2022-11-10T08:04:03.897Z,8.73
2022-11-10T08:08:24.180Z,8.75
2022-11-10T08:12:44.688Z,8.84
2022-11-10T08:17:05.361Z,8.97
2022-11-10T08:21:26.019Z,9.25
2022-11-10T08:25:47.895Z,9.40
2022-11-10T08:30:08.295Z,9.55
2022-11-10T08:34:28.825Z,9.68
2022-11-10T08:38:48.883Z,9.80
2022-11-10T08:43:10.266Z,9.84
2022-11-10T08:47:30.555Z,10.04
2022-11-10T08:51:50.947Z,9.97
2022-11-10T08:56:11.076Z,10.03
2022-11-10T09:00:32.342Z,10.04
2022-11-10T09:04:53.583Z,10.07
2022-11-10T09:09:14.451Z,10.12
2022-11-10T09:13:35.209Z,10.27
2022-11-10T09:18:01.782Z,10.19
2022-11-10T09:22:22.490Z,10.28
2022-11-10T09:26:45.303Z,10.35
2022-11-10T09:31:05.931Z,10.49
2022-11-10T09:35:27.282Z,10.42
2022-11-10T09:39:47.549Z,10.35
2022-11-10T09:44:30.929Z,10.43
2022-11-10T09:48:56.314Z,10.52
2022-11-10T09:53:24.846Z,10.63
2022-11-10T09:57:49.095Z,10.50
2022-11-10T10:02:31.806Z,10.80
2022-11-10T10:07:11.498Z,10.87
2022-11-10T10:12:07.146Z,11.00
2022-11-10T10:16:36.353Z,10.95
2022-11-10T10:21:17.705Z,10.76
2022-11-10T10:25:40.856Z,10.77
2022-11-10T10:30:01.963Z,10.75
2022-11-10T10:34:27.364Z,10.82
2022-11-10T10:38:52.541Z,10.79
2022-11-10T10:43:12.796Z,10.95
2022-11-10T10:47:37.496Z,11.17
2022-11-10T10:52:18.182Z,11.17
2022-11-10T10:56:38.719Z,11.40
2022-11-10T11:01:21.361Z,11.41
2022-11-10T11:05:42.091Z,11.46
2022-11-10T11:10:02.296Z,11.36
2022-11-10T11:14:25.693Z,11.44
2022-11-10T11:18:46.030Z,11.59
2022-11-10T11:23:25.659Z,11.39
2022-11-10T11:27:58.136Z,11.45
2022-11-10T11:32:34.766Z,11.57
2022-11-10T11:37:12.050Z,11.51
2022-11-10T11:41:49.262Z,11.58
2022-11-10T11:46:21.297Z,11.71
2022-11-10T11:50:45.903Z,11.71
2022-11-10T11:55:53.934Z,11.81
2022-11-10T12:00:17.457Z,11.72
2022-11-10T12:05:03.022Z,11.71
2022-11-10T12:09:28.792Z,11.77
2022-11-10T12:14:49.322Z,11.89
2022-11-10T12:19:46.859Z,12.10
2022-11-10T12:24:19.070Z,12.12
2022-11-10T12:28:47.725Z,11.96
2022-11-10T12:33:26.919Z,12.11
2022-11-10T12:37:54.018Z,12.02
2022-11-10T12:42:19.806Z,12.05
2022-11-10T12:46:42.319Z,11.83
2022-11-10T12:51:13.743Z,11.78
2022-11-10T12:55:45.556Z,11.80
2022-11-10T13:00:27.447Z,11.83
2022-11-10T13:05:28.014Z,11.66
2022-11-10T13:09:48.633Z,11.72
2022-11-10T13:14:28.045Z,11.71
2022-11-10T13:18:53.431Z,11.70
2022-11-10T13:23:29.950Z,11.76
2022-11-10T13:27:52.143Z,11.62
2022-11-10T13:32:15.793Z,11.72
2022-11-10T13:36:43.279Z,11.61
2022-11-10T13:41:33.862Z,11.53
2022-11-10T13:46:02.873Z,11.47
2022-11-10T13:50:40.562Z,11.51
2022-11-10T13:55:31.566Z,11.37
2022-11-10T13:59:56.531Z,11.43
2022-11-10T14:04:35.621Z,11.31
2022-11-10T14:09:02.838Z,11.24
2022-11-10T14:13:32.055Z,11.24
2022-11-10T14:17:56.047Z,11.30
2022-11-10T14:22:31.891Z,11.24
2022-11-10T14:26:53.736Z,11.18
2022-11-10T14:31:23.558Z,11.12
2022-11-10T14:35:53.046Z,11.01
2022-11-10T14:40:17.462Z,10.90
2022-11-10T14:44:37.805Z,10.86
2022-11-10T14:48:59.657Z,10.77
2022-11-10T14:53:39.164Z,10.52
2022-11-10T14:58:05.128Z,10.53
2022-11-10T15:02:25.654Z,10.47
2022-11-10T15:06:48.945Z,10.47
2022-11-10T15:11:40.292Z,10.27
2022-11-10T15:16:22.250Z,10.12
2022-11-10T15:20:42.432Z,9.96
2022-11-10T15:25:15.648Z,9.86
2022-11-10T15:29:36.038Z,9.73
2022-11-10T15:33:59.458Z,9.68
2022-11-10T15:38:27.478Z,9.57
2022-11-10T15:43:08.286Z,9.46
2022-11-10T15:47:28.378Z,9.53
2022-11-10T15:51:52.205Z,9.61
2022-11-10T15:56:18.464Z,9.55
2022-11-10T16:00:39.167Z,9.59
2022-11-10T16:05:00.293Z,9.46
2022-11-10T16:09:20.826Z,9.39
2022-11-10T16:13:41.383Z,9.22
2022-11-10T16:18:01.998Z,9.00
2022-11-10T16:22:22.373Z,8.98
2022-11-10T16:26:42.932Z,9.30
2022-11-10T16:31:03.354Z,9.53
2022-11-10T16:35:24.200Z,9.81
2022-11-10T16:39:44.424Z,10.02
2022-11-10T16:44:13.192Z,10.19
2022-11-10T16:48:36.104Z,10.38
2022-11-10T16:52:57.270Z,10.55
2022-11-10T16:57:17.698Z,10.57
2022-11-10T17:01:41.737Z,10.56
2022-11-10T17:06:02.832Z,10.46
2022-11-10T17:10:23.568Z,10.31
2022-11-10T17:14:43.861Z,10.36
2022-11-10T17:19:07.526Z,10.33
2022-11-10T17:23:28.137Z,10.41
2022-11-10T17:27:48.584Z,10.40
2022-11-10T17:32:08.831Z,10.28
2022-11-10T17:36:30.558Z,10.12
2022-11-10T17:40:51.956Z,10.10
2022-11-10T17:45:20.855Z,10.05
2022-11-10T17:49:41.155Z,9.95
2022-11-10T17:54:05.785Z,9.95
2022-11-10T17:58:26.344Z,9.78
2022-11-10T18:02:52.544Z,9.74
2022-11-10T18:07:15.385Z,9.81
2022-11-10T18:11:36.040Z,9.56
2022-11-10T18:15:59.765Z,9.56
2022-11-10T18:20:20.089Z,9.44
2022-11-10T18:24:40.238Z,9.36
2022-11-10T18:29:00.748Z,9.17
2022-11-10T18:33:21.607Z,9.38
2022-11-10T18:37:42.340Z,9.41
2022-11-10T18:42:02.848Z,9.34
2022-11-10T18:46:23.589Z,9.27
2022-11-10T18:50:44.126Z,9.19
2022-11-10T18:55:04.685Z,8.99
2022-11-10T18:59:24.997Z,8.80
2022-11-10T19:03:45.865Z,8.76
2022-11-10T19:08:08.061Z,8.61
2022-11-10T19:12:28.255Z,8.54
2022-11-10T19:16:48.853Z,8.35
2022-11-10T19:21:14.952Z,8.24
2022-11-10T19:25:35.191Z,8.19
2022-11-10T19:29:55.500Z,8.17
2022-11-10T19:34:18.831Z,8.07
2022-11-10T19:38:39.789Z,8.01
2022-11-10T19:43:00.209Z,7.98
2022-11-10T19:47:20.991Z,7.99
2022-11-10T19:51:41.073Z,7.79
2022-11-10T19:56:05.051Z,7.77
2022-11-10T20:00:25.864Z,7.78
2022-11-10T20:05:05.065Z,7.69
2022-11-10T20:09:25.319Z,7.73
2022-11-10T20:13:46.017Z,7.77
2022-11-10T20:18:07.137Z,7.70
2022-11-10T20:22:27.671Z,7.54
2022-11-10T20:26:49.805Z,7.37
2022-11-10T20:31:16.233Z,7.27
2022-11-10T20:35:41.396Z,7.08
2022-11-10T20:40:07.332Z,7.04
2022-11-10T20:44:39.781Z,6.91
2022-11-10T20:49:00.343Z,6.68
2022-11-10T20:53:21.219Z,6.35
2022-11-10T20:57:41.911Z,6.19
2022-11-10T21:02:02.896Z,6.10
2022-11-10T21:06:23.225Z,6.00
2022-11-10T21:10:50.117Z,5.84
2022-11-10T21:15:10.398Z,5.81
2022-11-10T21:19:35.058Z,5.60
2022-11-10T21:23:57.423Z,5.48
2022-11-10T21:28:18.327Z,5.51
2022-11-10T21:32:38.592Z,5.42
2022-11-10T21:36:59.077Z,5.35
2022-11-10T21:41:19.434Z,5.42
2022-11-10T21:45:40.153Z,5.34
2022-11-10T21:50:00.223Z,5.37
2022-11-10T21:54:20.973Z,5.37
2022-11-10T21:58:41.106Z,5.44
2022-11-10T22:03:03.786Z,5.32
2022-11-10T22:07:23.973Z,5.27
2022-11-10T22:12:03.260Z,5.26
2022-11-10T22:16:47.522Z,5.25
2022-11-10T22:21:08.652Z,5.19
2022-11-10T22:25:28.647Z,5.06
2022-11-10T22:29:49.260Z,5.00
2022-11-10T22:34:09.448Z,4.96
2022-11-10T22:38:37.586Z,4.98
2022-11-10T22:43:16.297Z,5.10
2022-11-10T22:47:55.637Z,5.12
2022-11-10T22:52:15.796Z,5.08
2022-11-10T22:56:36.616Z,5.09
2022-11-10T23:01:07.294Z,5.11
2022-11-10T23:05:28.006Z,5.11
2022-11-10T23:09:48.174Z,5.13
2022-11-10T23:14:10.314Z,5.08
2022-11-10T23:18:30.915Z,5.10
2022-11-10T23:22:51.354Z,5.14
2022-11-10T23:27:11.412Z,5.03
2022-11-10T23:31:32.025Z,4.87
2022-11-10T23:35:52.132Z,4.76
2022-11-10T23:40:12.920Z,4.80
2022-11-10T23:44:33.196Z,4.79
2022-11-10T23:48:54.011Z,4.71
2022-11-10T23:53:14.667Z,4.66
2022-11-10T23:57:35.527Z,4.47
